Airfield :
LOGIN :

Register | Disclaimer

   EN    FR    IT 

 










Legend :    VFR   Marginal VFR   IFR   Intensive IFR   Very Intensive IFR
Visi :
Ceiling :
>= 8 km
>= 3000ft
5 to 8 km
1000 to 3000 ft
1500m to 5 km
500 to 1000 ft
800 to 1500m
200 to 500 ft
< 800m
< 200 ft
Symbols :   Thunderstorms  Fog  Heavy snow  Heavy precipitations  Wind > 20 kt
SIGMETs :     Misc.  Thunderstorms  Icing  Turbulence  Mountain Waves  Volcanic Ashes






- Airport Elevation : 65 ft
- IATA code : ADA


LTAF - Adana

CURRENT METAR :
  • 050420Z VRB01KT 9999 SCT030 26/25 Q1003 NOSIG RMK RWY23 18002KT

EXPIRED METARs :
  • 050350Z 24002KT 9999 SCT030 25/24 Q1003 NOSIG
  • 050320Z 24003KT 150V260 9999 SCT030 25/24 Q1003 NOSIG
  • 050250Z 14003KT 9999 SCT030 25/24 Q1003 NOSIG RMK RWY23 13003KT
  • 050220Z 14004KT 9999 SCT030 25/24 Q1003 NOSIG
  • 050150Z 14004KT 9999 SCT030 25/24 Q1003 NOSIG RMK RWY23 13004KT

TAF TAF LTAF
Valid from the 05 at 00:00 until the 06 at 00:00 UTC


042240Z 0500/0524 VRB02KT 9999 SCT035
PROB40
TEMPO 0503/0505 4000 BR
BECMG 0508/0510 21012KT CAVOK
BECMG 0516/0518 VRB02KT



MET'MAP, your aeronautical weather chart ! - Copyright ORBIFLY December 2007 - Disclaimer

ORBIFLY MET'MAP TEAM :

Programming & Development : Alexandra Zaïnal
Concept & original design : Baudouin d'Aumeries
Assistance for programming : Marc-Olivier Méhu
Technical & hardware support : Manuel Goepfert

Contact : metmap@orbifly.com




SOURCES & CREDITS :

   NOAA